Time;durP1;ratioP1;P1;durP2;ratioP2;P2;SDS_P1;SDS_P2;PMS_P1;PMS_P2;Temp;Humidity;BMP_temperature;BMP_pressure;BME280_temperature;BME280_humidity;BME280_pressure;Samples;Min_cycle;Max_cycle;Signal;HPM_P1;HPM_P2
2021/08/20 00:00:08;;;;;;;;;;;;;;;16.36;73.04;96959.63;30001;983;1879;-62
2021/08/20 00:00:39;;;;;;;;;;;;;;;16.36;72.79;96959.63;30001;983;1884;-62
2021/08/20 00:01:10;;;;;;;;;;;;;;;16.35;72.88;96955.28;30001;983;1879;-63
2021/08/20 00:01:41;;;;;;;;;;;;;;;16.34;72.60;96950.94;30001;983;1884;-64
2021/08/20 00:02:12;;;;;;;;;;;;;;;16.34;72.88;96953.69;30001;983;1879;-62
2021/08/20 00:02:43;;;;;;;;;;;;;;;16.34;72.81;96961.91;30001;983;1884;-63
2021/08/20 00:03:16;;;;;;;;;;;;;;;16.34;73.04;96957.22;30001;983;1866;-62
2021/08/20 00:03:47;;;;;;;;;;;;;;;16.33;72.91;96949.34;30001;983;1875;-62
2021/08/20 00:04:18;;;;;;;;;;;;;;;16.34;72.91;96953.69;30001;982;1880;-63
2021/08/20 00:04:49;;;;;;;;;;;;;;;16.34;72.94;96950.94;30001;982;1884;-62
2021/08/20 00:05:20;;;;;;;;;;;;;;;16.34;73.26;96956.41;30001;982;1880;-61
2021/08/20 00:05:54;;;;;;;;;;;;;;;16.33;73.22;96952.87;30001;982;1871;-64
2021/08/20 00:06:25;;;;;;;;;;;;;;;16.33;73.20;96960.28;30001;982;1871;-64
2021/08/20 00:06:56;;;;;;;;;;;;;;;16.33;73.53;96954.81;30001;986;1883;-63
2021/08/20 00:07:27;;;;;;;;;;;;;;;16.33;73.63;96954.81;30001;983;1866;-62
2021/08/20 00:07:57;;;;;;;;;;;;;;;16.33;73.45;96960.28;30001;983;1875;-62
2021/08/20 00:08:28;;;;;;;;;;;;;;;16.33;73.46;96952.06;30001;983;1879;-63
2021/08/20 00:09:00;;;;;;;;;;;;;;;16.33;73.75;96954.81;30001;983;1884;-62
2021/08/20 00:09:30;;;;;;;;;;;;;;;16.32;73.46;96948.53;30001;983;1879;-64
2021/08/20 00:10:03;;;;;;;;;;;;;;;16.33;73.50;96954.81;30001;983;1884;-63
2021/08/20 00:10:34;;;;;;;;;;;;;;;16.33;73.90;96954.81;30001;983;1880;-63
2021/08/20 00:11:06;;;;;;;;;;;;;;;16.32;73.84;96954.00;30001;983;1884;-63
2021/08/20 00:11:37;;;;;;;;;;;;;;;16.32;74.17;96954.00;30001;982;1880;-57
2021/08/20 00:12:09;;;;;;;;;;;;;;;16.33;74.20;96958.34;30001;982;1884;-63
2021/08/20 00:12:41;;;;;;;;;;;;;;;16.33;74.12;96950.13;30001;982;1867;-63
2021/08/20 00:13:12;;;;;;;;;;;;;;;16.33;73.91;96952.87;30001;982;1862;-63
2021/08/20 00:13:42;;;;;;;;;;;;;;;16.34;74.14;96945.47;30001;982;1880;-62
2021/08/20 00:14:15;;;;;;;;;;;;;;;16.34;74.08;96950.94;30001;983;1883;-63
2021/08/20 00:14:46;;;;;;;;;;;;;;;16.35;74.10;96949.81;30001;983;1879;-63
2021/08/20 00:15:17;;;;;;;;;;;;;;;16.34;74.10;96942.72;30001;983;1884;-62
2021/08/20 00:15:48;;;;;;;;;;;;;;;16.35;74.38;96952.56;30001;983;1879;-63
2021/08/20 00:16:19;;;;;;;;;;;;;;;16.36;74.06;96948.69;30001;983;1884;-63
2021/08/20 00:16:50;;;;;;;;;;;;;;;16.36;74.33;96946.75;30001;983;1866;-63
2021/08/20 00:17:21;;;;;;;;;;;;;;;16.37;74.27;96950.28;30001;983;1875;-62
2021/08/20 00:17:52;;;;;;;;;;;;;;;16.36;74.45;96952.22;30001;983;1880;-61
2021/08/20 00:18:24;;;;;;;;;;;;;;;16.36;74.08;96943.22;30001;983;1884;-64
2021/08/20 00:18:55;;;;;;;;;;;;;;;16.37;74.09;96944.81;30001;983;1880;-62
2021/08/20 00:19:26;;;;;;;;;;;;;;;16.38;74.33;96941.75;30001;982;1884;-63
2021/08/20 00:19:57;;;;;;;;;;;;;;;16.38;74.10;96946.41;30001;982;1880;-62
2021/08/20 00:20:28;;;;;;;;;;;;;;;16.38;74.15;96940.94;30001;982;1884;-63
2021/08/20 00:20:59;;;;;;;;;;;;;;;16.38;74.23;96941.75;30001;982;1880;-62
2021/08/20 00:21:29;;;;;;;;;;;;;;;16.39;73.85;96942.56;30001;982;1884;-63
2021/08/20 00:22:00;;;;;;;;;;;;;;;16.39;74.03;96942.56;30001;983;1866;-63
2021/08/20 00:22:31;;;;;;;;;;;;;;;16.41;73.82;96940.28;30001;983;1875;-63
2021/08/20 00:23:03;;;;;;;;;;;;;;;16.40;74.21;96939.47;30001;983;1879;-62
2021/08/20 00:23:33;;;;;;;;;;;;;;;16.41;74.11;96938.34;30001;983;1884;-62
2021/08/20 00:24:05;;;;;;;;;;;;;;;16.43;74.19;96935.28;30001;983;1879;-63
2021/08/20 00:24:36;;;;;;;;;;;;;;;16.43;73.79;96941.56;30001;983;1884;-63
2021/08/20 00:25:08;;;;;;;;;;;;;;;16.45;74.25;96933.03;30001;983;1880;-63
2021/08/20 00:25:39;;;;;;;;;;;;;;;16.46;74.01;96937.37;30001;983;1884;-62
2021/08/20 00:26:10;;;;;;;;;;;;;;;16.47;74.00;96938.97;30001;983;1880;-62
2021/08/20 00:26:42;;;;;;;;;;;;;;;16.47;73.82;96944.47;30001;983;1884;-62
2021/08/20 00:27:13;;;;;;;;;;;;;;;16.47;73.89;96933.50;30001;982;1867;-63
2021/08/20 00:27:44;;;;;;;;;;;;;;;16.46;73.91;96934.63;30001;984;1875;-63
2021/08/20 00:28:15;;;;;;;;;;;;;;;16.46;74.00;96937.37;30001;982;1880;-61
2021/08/20 00:28:46;;;;;;;;;;;;;;;16.47;73.79;96938.97;30001;982;1884;-62
2021/08/20 00:29:17;;;;;;;;;;;;;;;16.45;74.08;96935.75;30001;983;1879;-61
2021/08/20 00:29:48;;;;;;;;;;;;;;;16.46;73.78;96936.56;30001;983;1883;-62
2021/08/20 00:30:19;;;;;;;;;;;;;;;16.45;73.91;96935.75;30001;983;1879;-62
2021/08/20 00:30:49;;;;;;;;;;;;;;;16.46;73.79;96934.63;30001;983;1884;-64
2021/08/20 00:31:21;;;;;;;;;;;;;;;16.46;73.84;96945.59;30001;983;1879;-63
2021/08/20 00:31:52;;;;;;;;;;;;;;;16.47;73.81;96936.25;30001;983;1884;-63
2021/08/20 00:32:23;;;;;;;;;;;;;;;16.48;74.08;96937.84;30001;983;1866;-62
2021/08/20 00:32:53;;;;;;;;;;;;;;;16.49;74.24;96941.38;30001;983;1875;-63
2021/08/20 00:33:24;;;;;;;;;;;;;;;16.48;74.40;96937.84;30001;983;1880;-63
2021/08/20 00:33:55;;;;;;;;;;;;;;;16.47;74.55;96933.50;30001;983;1884;-62
2021/08/20 00:34:26;;;;;;;;;;;;;;;16.47;74.45;96938.97;30001;982;1881;-61
2021/08/20 00:34:57;;;;;;;;;;;;;;;16.47;74.31;96936.25;30001;982;1884;-62
2021/08/20 00:35:28;;;;;;;;;;;;;;;16.47;74.56;96935.44;30001;982;1880;-57
2021/08/20 00:35:59;;;;;;;;;;;;;;;16.46;74.62;96936.56;30001;982;1884;-57
2021/08/20 00:36:31;;;;;;;;;;;;;;;16.45;74.67;96935.75;30001;982;1880;-62
2021/08/20 00:37:02;;;;;;;;;;;;;;;16.46;74.39;96936.56;30001;983;1883;-57
2021/08/20 00:37:35;;;;;;;;;;;;;;;16.44;74.60;96939.63;30001;983;1866;-57
2021/08/20 00:38:06;;;;;;;;;;;;;;;16.43;74.50;96933.34;30001;983;1875;-62
2021/08/20 00:38:39;;;;;;;;;;;;;;;16.43;74.69;96932.56;30001;983;1879;-58
2021/08/20 00:39:10;;;;;;;;;;;;;;;16.43;74.83;96938.03;30001;983;1884;-58
2021/08/20 00:39:42;;;;;;;;;;;;;;;16.43;74.97;96932.56;30001;983;1879;-58
2021/08/20 00:40:14;;;;;;;;;;;;;;;16.42;74.83;96930.94;30001;983;1884;-62
2021/08/20 00:40:45;;;;;;;;;;;;;;;16.42;74.86;96930.94;30001;983;1880;-56
2021/08/20 00:41:16;;;;;;;;;;;;;;;16.41;74.90;96921.91;30001;982;1884;-57
2021/08/20 00:41:47;;;;;;;;;;;;;;;16.41;75.03;96921.91;30001;982;1880;-57
2021/08/20 00:42:18;;;;;;;;;;;;;;;16.42;75.20;96933.69;30001;982;1884;-57
2021/08/20 00:42:49;;;;;;;;;;;;;;;16.42;74.95;96931.75;30001;982;1867;-62
2021/08/20 00:43:22;;;;;;;;;;;;;;;16.40;75.26;96928.53;30001;982;1876;-57
2021/08/20 00:43:53;;;;;;;;;;;;;;;16.40;75.05;96922.25;30001;982;1880;-56
2021/08/20 00:44:24;;;;;;;;;;;;;;;16.39;75.13;96926.12;30001;983;1884;-57
2021/08/20 00:44:55;;;;;;;;;;;;;;;16.39;76.27;96926.94;30001;983;1879;-56
2021/08/20 00:45:26;;;;;;;;;;;;;;;16.38;75.93;96925.31;30001;983;1884;-58
2021/08/20 00:45:59;;;;;;;;;;;;;;;16.38;75.66;96922.59;30001;983;1879;-59
2021/08/20 00:46:30;;;;;;;;;;;;;;;16.38;75.27;96924.50;30001;983;1884;-57
2021/08/20 00:47:02;;;;;;;;;;;;;;;16.39;75.18;96926.12;30001;983;1880;-58
2021/08/20 00:47:33;;;;;;;;;;;;;;;16.37;75.46;96928.38;30001;983;1884;-63
2021/08/20 00:48:04;;;;;;;;;;;;;;;16.38;75.47;96935.47;30001;983;1866;-57
2021/08/20 00:48:36;;;;;;;;;;;;;;;16.37;75.29;96928.38;30001;982;1875;-57
2021/08/20 00:49:08;;;;;;;;;;;;;;;16.37;75.54;96931.13;30001;982;1880;-61
2021/08/20 00:49:39;;;;;;;;;;;;;;;16.37;75.20;96928.38;30001;982;1884;-57
2021/08/20 00:50:10;;;;;;;;;;;;;;;16.37;75.53;96934.66;30001;982;1880;-62
2021/08/20 00:50:41;;;;;;;;;;;;;;;16.38;75.31;96935.47;30001;982;1884;-61
2021/08/20 00:51:17;;;;;;;;;;;;;;;16.39;75.71;96931.59;30001;982;1880;-63
2021/08/20 00:51:48;;;;;;;;;;;;;;;16.39;75.41;96931.59;30001;982;1884;-63
2021/08/20 00:52:19;;;;;;;;;;;;;;;16.38;75.37;96936.28;30001;983;1879;-57
2021/08/20 00:52:50;;;;;;;;;;;;;;;16.39;75.25;96931.59;30001;983;1884;-62
2021/08/20 00:53:21;;;;;;;;;;;;;;;16.38;75.29;96930.00;30001;983;1866;-57
2021/08/20 00:53:53;;;;;;;;;;;;;;;16.39;75.37;96926.12;30001;983;1875;-57
2021/08/20 00:54:23;;;;;;;;;;;;;;;16.37;75.50;96926.44;30001;983;1880;-63
2021/08/20 00:54:54;;;;;;;;;;;;;;;16.38;75.15;96930.00;30001;983;1884;-57
2021/08/20 00:55:26;;;;;;;;;;;;;;;16.38;75.48;96930.00;30001;983;1880;-57
2021/08/20 00:55:59;;;;;;;;;;;;;;;16.37;75.20;96923.72;30001;983;1884;-63
2021/08/20 00:56:30;;;;;;;;;;;;;;;16.38;75.07;96928.06;30001;982;1880;-57
2021/08/20 00:57:03;;;;;;;;;;;;;;;16.39;75.12;96923.38;30001;982;1884;-57
2021/08/20 00:57:34;;;;;;;;;;;;;;;16.38;74.91;96924.50;30001;982;1880;-58
2021/08/20 00:58:05;;;;;;;;;;;;;;;16.38;74.91;96930.78;30001;982;1884;-57
2021/08/20 00:58:36;;;;;;;;;;;;;;;16.37;74.81;96922.91;30001;982;1867;-57
2021/08/20 00:59:07;;;;;;;;;;;;;;;16.39;74.76;96931.59;30001;982;1876;-58
2021/08/20 00:59:38;;;;;;;;;;;;;;;16.38;75.32;96924.50;30001;983;1879;-57
2021/08/20 01:00:10;;;;;;;;;;;;;;;16.37;75.23;96923.72;30001;983;1883;-63
2021/08/20 01:00:40;;;;;;;;;;;;;;;16.39;75.05;96923.38;30001;983;1879;-63
2021/08/20 01:01:11;;;;;;;;;;;;;;;16.38;75.15;96921.78;30001;983;1870;-63
2021/08/20 01:01:42;;;;;;;;;;;;;;;16.38;74.98;96924.50;30001;983;1871;-63
2021/08/20 01:02:13;;;;;;;;;;;;;;;16.39;75.06;96923.38;30001;983;1884;-57
2021/08/20 01:02:45;;;;;;;;;;;;;;;16.39;75.07;96926.12;30001;983;1880;-63
2021/08/20 01:03:19;;;;;;;;;;;;;;;16.38;74.84;96916.31;30001;983;1871;-57
2021/08/20 01:03:49;;;;;;;;;;;;;;;16.38;74.72;96919.03;30001;982;1871;-62
2021/08/20 01:04:21;;;;;;;;;;;;;;;16.38;74.91;96919.03;30001;982;1884;-57
2021/08/20 01:04:52;;;;;;;;;;;;;;;16.38;74.99;96924.50;30001;982;1880;-57
2021/08/20 01:05:25;;;;;;;;;;;;;;;16.38;74.94;96922.59;30001;982;1884;-57
2021/08/20 01:05:56;;;;;;;;;;;;;;;16.37;74.66;96920.97;30001;982;1880;-63
2021/08/20 01:06:28;;;;;;;;;;;;;;;16.38;74.94;96919.84;30001;982;1884;-57
2021/08/20 01:07:01;;;;;;;;;;;;;;;16.38;75.00;96922.59;30001;983;1879;-57
2021/08/20 01:07:37;;;;;;;;;;;;;;;16.39;74.70;96915.16;30001;983;1884;-62
2021/08/20 01:08:09;;;;;;;;;;;;;;;16.39;74.82;96915.97;30001;983;1879;-57
2021/08/20 01:08:39;;;;;;;;;;;;;;;16.39;74.61;96921.44;30001;983;1871;-63
2021/08/20 01:09:10;;;;;;;;;;;;;;;16.40;74.83;96919.50;30001;983;1853;-63
2021/08/20 01:09:41;;;;;;;;;;;;;;;16.39;74.50;96915.97;30001;984;1880;-57
2021/08/20 01:10:13;;;;;;;;;;;;;;;16.39;74.82;96917.91;30001;983;1875;-58
2021/08/20 01:10:44;;;;;;;;;;;;;;;16.39;74.89;96917.91;30001;983;1867;-62
2021/08/20 01:11:18;;;;;;;;;;;;;;;16.39;74.90;96920.66;30001;982;1867;-58
2021/08/20 01:11:49;;;;;;;;;;;;;;;16.40;74.62;96919.50;30001;982;1880;-62
2021/08/20 01:12:20;;;;;;;;;;;;;;;16.38;74.80;96919.03;30001;982;1876;-58
2021/08/20 01:12:51;;;;;;;;;;;;;;;16.39;75.06;96924.19;30001;982;1880;-57
2021/08/20 01:13:22;;;;;;;;;;;;;;;16.39;75.03;96920.66;30001;982;1876;-56
2021/08/20 01:13:53;;;;;;;;;;;;;;;16.40;74.79;96933.19;30001;983;1866;-63
2021/08/20 01:14:34;;;;;;;;;;;;;;;16.39;74.90;96926.94;30001;983;1866;-63
2021/08/20 01:15:05;;;;;;;;;;;;;;;16.41;74.58;96923.84;30001;983;1879;-56
2021/08/20 01:15:36;;;;;;;;;;;;;;;16.40;74.75;96923.06;30001;983;1875;-62
2021/08/20 01:16:08;;;;;;;;;;;;;;;16.41;74.95;96929.34;30001;983;1879;-64
2021/08/20 01:16:39;;;;;;;;;;;;;;;16.41;75.64;96932.06;30001;983;1875;-56
2021/08/20 01:17:11;;;;;;;;;;;;;;;16.40;75.62;96935.94;30001;983;1880;-62
2021/08/20 01:17:42;;;;;;;;;;;;;;;16.38;76.04;96928.06;30001;983;1875;-57
2021/08/20 01:18:21;;;;;;;;;;;;;;;16.36;76.82;96926.78;30001;983;1880;-57
2021/08/20 01:18:52;;;;;;;;;;;;;;;16.36;76.10;96929.50;30001;982;1875;-58
2021/08/20 01:19:23;;;;;;;;;;;;;;;16.36;76.11;96924.03;30001;972;1885;-59
2021/08/20 01:19:53;;;;;;;;;;;;;;;16.35;75.88;96922.44;30001;982;1867;-58
2021/08/20 01:20:24;;;;;;;;;;;;;;;16.34;75.95;96912.59;30001;982;1867;-63
2021/08/20 01:20:56;;;;;;;;;;;;;;;16.32;76.01;96920.34;30001;982;1867;-63
2021/08/20 01:21:27;;;;;;;;;;;;;;;16.31;75.78;96921.47;30001;983;1879;-62
2021/08/20 01:21:58;;;;;;;;;;;;;;;16.31;76.15;96926.97;30001;983;1875;-63
2021/08/20 01:22:29;;;;;;;;;;;;;;;16.29;76.00;96921.00;30001;983;1879;-64
2021/08/20 01:23:05;;;;;;;;;;;;;;;16.27;76.13;96926.03;30001;983;1875;-57
2021/08/20 01:23:37;;;;;;;;;;;;;;;16.26;76.11;96929.91;30001;983;1879;-63
2021/08/20 01:24:08;;;;;;;;;;;;;;;16.25;77.09;96926.38;30001;983;1875;-62
2021/08/20 01:24:41;;;;;;;;;;;;;;;16.23;77.46;96928.63;30001;983;1866;-57
2021/08/20 01:25:12;;;;;;;;;;;;;;;16.22;77.48;96928.94;30001;983;1866;-63
2021/08/20 01:25:44;;;;;;;;;;;;;;;16.21;77.50;96930.06;30001;983;1880;-63
2021/08/20 01:26:15;;;;;;;;;;;;;;;16.21;77.96;96935.56;30001;982;1862;-62
2021/08/20 01:26:47;;;;;;;;;;;;;;;16.18;77.85;96931.53;30001;982;1871;-58
2021/08/20 01:27:18;;;;;;;;;;;;;;;16.16;78.35;96933.00;30001;982;1876;-62
2021/08/20 01:28:03;;;;;;;;;;;;;;;16.15;78.06;96931.38;30001;982;1880;-59
2021/08/20 01:28:34;;;;;;;;;;;;;;;16.14;77.67;96921.56;30001;982;1876;-57
2021/08/20 01:29:04;;;;;;;;;;;;;;;16.15;77.78;96925.91;30001;983;1879;-63
2021/08/20 01:29:35;;;;;;;;;;;;;;;16.15;77.53;96929.44;30001;983;1875;-64
2021/08/20 01:30:07;;;;;;;;;;;;;;;16.15;77.32;96925.91;30001;983;1879;-62
2021/08/20 01:30:39;;;;;;;;;;;;;;;16.14;77.01;96925.09;30001;983;1862;-63
2021/08/20 01:31:11;;;;;;;;;;;;;;;16.13;76.93;96928.97;30001;983;1871;-58
2021/08/20 01:31:43;;;;;;;;;;;;;;;16.12;77.14;96932.03;30001;983;1875;-62
2021/08/20 01:32:13;;;;;;;;;;;;;;;16.13;77.08;96931.72;30001;983;1880;-63
2021/08/20 01:32:45;;;;;;;;;;;;;;;16.11;77.22;96930.44;30001;980;1878;-57
2021/08/20 01:33:15;;;;;;;;;;;;;;;16.11;76.93;96935.91;30001;983;1880;-63
2021/08/20 01:33:46;;;;;;;;;;;;;;;16.09;77.29;96933.50;30001;983;1875;-57
2021/08/20 01:34:18;;;;;;;;;;;;;;;16.09;77.21;96938.97;30001;982;1880;-62
2021/08/20 01:34:49;;;;;;;;;;;;;;;16.10;77.63;96932.38;30001;982;1876;-62
2021/08/20 01:35:22;;;;;;;;;;;;;;;16.09;77.60;96938.97;30001;982;1880;-62
2021/08/20 01:35:53;;;;;;;;;;;;;;;16.08;77.74;96940.91;30001;982;1863;-61
2021/08/20 01:36:24;;;;;;;;;;;;;;;16.09;77.60;96936.22;30001;983;1870;-62
2021/08/20 01:36:55;;;;;;;;;;;;;;;16.08;77.71;96932.69;30001;983;1875;-63
2021/08/20 01:37:25;;;;;;;;;;;;;;;16.07;77.31;96925.59;30001;983;1879;-57
2021/08/20 01:37:56;;;;;;;;;;;;;;;16.08;77.29;96926.41;30001;983;1875;-62
2021/08/20 01:38:27;;;;;;;;;;;;;;;16.09;77.56;96930.75;30001;983;1879;-62
2021/08/20 01:38:58;;;;;;;;;;;;;;;16.09;77.70;96928.03;30001;983;1875;-57
2021/08/20 01:39:29;;;;;;;;;;;;;;;16.09;77.39;96928.81;30001;983;1879;-57
2021/08/20 01:40:00;;;;;;;;;;;;;;;16.11;77.44;96922.22;30001;983;1875;-59
2021/08/20 01:40:31;;;;;;;;;;;;;;;16.09;77.09;96917.06;30001;983;1880;-63
2021/08/20 01:41:01;;;;;;;;;;;;;;;16.07;77.33;96911.91;30001;983;1862;-63
2021/08/20 01:41:33;;;;;;;;;;;;;;;16.07;76.86;96916.59;30001;982;1871;-58
2021/08/20 01:42:05;;;;;;;;;;;;;;;16.06;77.05;96912.25;30001;982;1862;-63
2021/08/20 01:42:36;;;;;;;;;;;;;;;16.06;76.95;96915.78;30001;982;1871;-57
2021/08/20 01:43:07;;;;;;;;;;;;;;;16.05;76.56;96922.37;30001;982;1876;-63
2021/08/20 01:43:38;;;;;;;;;;;;;;;16.05;76.50;96916.91;30001;982;1880;-63
2021/08/20 01:44:08;;;;;;;;;;;;;;;16.05;76.81;96922.37;30001;983;1875;-62
2021/08/20 01:44:41;;;;;;;;;;;;;;;16.05;76.83;96916.91;30001;983;1879;-62
2021/08/20 01:45:12;;;;;;;;;;;;;;;16.05;76.69;96922.37;30001;983;1875;-63
2021/08/20 01:45:44;;;;;;;;;;;;;;;16.06;77.18;96917.72;30001;983;1879;-63
2021/08/20 01:46:15;;;;;;;;;;;;;;;16.05;77.77;96916.13;30001;983;1875;-63
2021/08/20 01:46:46;;;;;;;;;;;;;;;16.05;77.91;96919.66;30001;983;1879;-63
2021/08/20 01:47:17;;;;;;;;;;;;;;;16.03;77.79;96919.19;30001;983;1862;-63
2021/08/20 01:47:47;;;;;;;;;;;;;;;16.03;77.50;96929.31;30001;983;1871;-62
2021/08/20 01:48:18;;;;;;;;;;;;;;;16.03;77.77;96923.84;30001;982;1875;-63
2021/08/20 01:48:53;;;;;;;;;;;;;;;16.02;77.55;96919.50;30001;982;1880;-58
2021/08/20 01:49:24;;;;;;;;;;;;;;;16.01;77.60;96926.91;30001;982;1875;-57
2021/08/20 01:49:54;;;;;;;;;;;;;;;16.02;77.34;96919.50;30001;982;1880;-57
2021/08/20 01:50:25;;;;;;;;;;;;;;;16.01;77.83;96924.16;30001;959;1899;-57
2021/08/20 01:50:56;;;;;;;;;;;;;;;16.00;77.87;96919.81;30001;982;1880;-63
2021/08/20 01:51:31;;;;;;;;;;;;;;;15.99;77.75;96922.88;30001;983;1875;-63
2021/08/20 01:52:02;;;;;;;;;;;;;;;15.98;77.68;96919.34;30001;983;1866;-62
2021/08/20 01:52:33;;;;;;;;;;;;;;;15.97;77.83;96919.69;30001;983;1866;-58
2021/08/20 01:53:05;;;;;;;;;;;;;;;15.97;77.44;96917.75;30001;983;1879;-62
2021/08/20 01:53:36;;;;;;;;;;;;;;;15.97;77.65;96911.47;30001;983;1875;-63
2021/08/20 01:54:06;;;;;;;;;;;;;;;15.96;77.45;96918.88;30001;983;1879;-57
2021/08/20 01:54:38;;;;;;;;;;;;;;;15.96;77.29;96910.66;30001;983;1875;-63
2021/08/20 01:55:09;;;;;;;;;;;;;;;15.97;77.16;96909.53;30001;983;1880;-57
2021/08/20 01:55:49;;;;;;;;;;;;;;;15.97;77.46;96917.75;30001;982;1875;-63
2021/08/20 01:56:20;;;;;;;;;;;;;;;15.98;77.37;96919.34;30001;982;1880;-63
2021/08/20 01:56:51;;;;;;;;;;;;;;;15.98;77.21;96922.09;30001;982;1876;-63
2021/08/20 01:57:22;;;;;;;;;;;;;;;15.99;77.03;96917.41;30001;982;1867;-63
2021/08/20 01:57:52;;;;;;;;;;;;;;;15.98;77.09;96916.63;30001;982;1867;-63
2021/08/20 01:58:23;;;;;;;;;;;;;;;15.99;77.50;96917.41;30001;982;1880;-63
2021/08/20 01:58:55;;;;;;;;;;;;;;;15.98;78.07;96921.28;30001;982;1876;-63
2021/08/20 01:59:25;;;;;;;;;;;;;;;15.97;77.96;96915.00;30001;983;1879;-64
2021/08/20 01:59:56;;;;;;;;;;;;;;;15.97;77.54;96923.22;30001;983;1862;-62
2021/08/20 02:00:27;;;;;;;;;;;;;;;15.96;77.46;96916.13;30001;983;1871;-59
2021/08/20 02:00:58;;;;;;;;;;;;;;;15.96;77.48;96921.59;30001;983;1875;-63
2021/08/20 02:01:30;;;;;;;;;;;;;;;15.96;77.61;96916.13;30001;983;1880;-63
2021/08/20 02:02:01;;;;;;;;;;;;;;;15.95;77.52;96917.25;30001;983;1875;-64
2021/08/20 02:02:32;;;;;;;;;;;;;;;15.96;77.36;96916.13;30001;983;1880;-60
2021/08/20 02:03:03;;;;;;;;;;;;;;;15.95;77.00;96922.75;30001;983;1875;-58
2021/08/20 02:03:35;;;;;;;;;;;;;;;15.95;77.23;96917.25;30001;982;1880;-63
2021/08/20 02:04:06;;;;;;;;;;;;;;;15.96;76.92;96921.59;30001;982;1876;-63
2021/08/20 02:04:37;;;;;;;;;;;;;;;15.96;77.16;96924.34;30001;982;1867;-63
2021/08/20 02:05:08;;;;;;;;;;;;;;;15.96;76.87;96920.81;30001;982;1867;-63
2021/08/20 02:05:39;;;;;;;;;;;;;;;15.96;76.77;96921.59;30001;982;1880;-63
2021/08/20 02:06:10;;;;;;;;;;;;;;;15.96;76.98;96918.88;30001;982;1876;-57
2021/08/20 02:06:41;;;;;;;;;;;;;;;15.96;76.74;96924.34;30001;983;1879;-64
2021/08/20 02:07:12;;;;;;;;;;;;;;;15.96;76.53;96924.34;30001;983;1875;-63
2021/08/20 02:07:44;;;;;;;;;;;;;;;15.97;76.50;96916.94;30001;983;1879;-63
2021/08/20 02:08:15;;;;;;;;;;;;;;;15.97;76.34;96925.94;30001;986;1875;-62
2021/08/20 02:08:46;;;;;;;;;;;;;;;15.97;76.45;96920.47;30001;962;1805;-59
2021/08/20 02:09:17;;;;;;;;;;;;;;;15.97;76.57;96920.47;30001;983;1875;-63
2021/08/20 02:09:48;;;;;;;;;;;;;;;15.98;76.50;96930.28;30001;983;1866;-62
2021/08/20 02:10:19;;;;;;;;;;;;;;;15.97;76.51;96920.47;30001;966;1798;-62
2021/08/20 02:10:50;;;;;;;;;;;;;;;15.97;76.69;96923.22;30001;982;1880;-64
2021/08/20 02:11:21;;;;;;;;;;;;;;;15.97;76.95;96930.63;30001;982;1862;-64
2021/08/20 02:11:51;;;;;;;;;;;;;;;15.97;76.99;96919.69;30001;982;1871;-63
2021/08/20 02:12:22;;;;;;;;;;;;;;;15.96;77.23;96926.28;30001;982;1876;-63
2021/08/20 02:12:53;;;;;;;;;;;;;;;15.95;76.90;96925.47;30001;960;1902;-63
2021/08/20 02:13:25;;;;;;;;;;;;;;;15.95;76.77;96928.22;30001;982;1876;-63
2021/08/20 02:13:56;;;;;;;;;;;;;;;15.95;77.00;96922.75;30001;982;1880;-64
2021/08/20 02:14:27;;;;;;;;;;;;;;;15.95;76.79;96928.22;30001;983;1875;-62
2021/08/20 02:14:58;;;;;;;;;;;;;;;15.95;76.49;96921.94;30001;983;1879;-62
2021/08/20 02:15:29;;;;;;;;;;;;;;;15.95;76.69;96925.47;30001;983;1875;-63
2021/08/20 02:16:00;;;;;;;;;;;;;;;15.95;76.52;96922.75;30001;983;1879;-62
2021/08/20 02:16:31;;;;;;;;;;;;;;;15.95;76.34;96924.66;30001;983;1862;-63
2021/08/20 02:17:01;;;;;;;;;;;;;;;15.95;76.22;96930.94;30001;986;1871;-62
2021/08/20 02:17:33;;;;;;;;;;;;;;;15.95;76.20;96922.75;30001;983;1875;-63
2021/08/20 02:18:03;;;;;;;;;;;;;;;15.94;76.08;96926.59;30001;983;1880;-63
2021/08/20 02:18:34;;;;;;;;;;;;;;;15.95;76.19;96928.22;30001;982;1875;-63
2021/08/20 02:19:05;;;;;;;;;;;;;;;15.96;76.09;96924.34;30001;982;1867;-62
2021/08/20 02:19:36;;;;;;;;;;;;;;;15.96;76.03;96927.09;30001;982;1867;-63
2021/08/20 02:20:08;;;;;;;;;;;;;;;15.96;76.08;96929.81;30001;982;1880;-63
2021/08/20 02:20:40;;;;;;;;;;;;;;;15.97;75.96;96923.22;30001;982;1876;-64
2021/08/20 02:21:11;;;;;;;;;;;;;;;15.97;76.09;96928.69;30001;983;1879;-63
2021/08/20 02:21:42;;;;;;;;;;;;;;;15.98;76.03;96926.75;30001;983;1875;-62
2021/08/20 02:22:13;;;;;;;;;;;;;;;15.97;75.44;96925.94;30001;983;1866;-62
2021/08/20 02:22:44;;;;;;;;;;;;;;;15.98;75.52;96919.34;30001;983;1866;-63
2021/08/20 02:23:15;;;;;;;;;;;;;;;15.97;75.27;96917.75;30001;983;1879;-64
2021/08/20 02:23:46;;;;;;;;;;;;;;;15.96;75.16;96921.59;30001;983;1875;-63
2021/08/20 02:24:17;;;;;;;;;;;;;;;15.96;75.08;96921.59;30001;983;1866;-64
2021/08/20 02:24:49;;;;;;;;;;;;;;;15.95;74.99;96922.75;30001;983;1866;-62
2021/08/20 02:25:20;;;;;;;;;;;;;;;15.95;75.14;96930.94;30001;983;1880;-63
2021/08/20 02:25:51;;;;;;;;;;;;;;;15.94;75.12;96921.13;30001;982;1875;-62
2021/08/20 02:26:22;;;;;;;;;;;;;;;15.93;75.49;96919.56;30001;982;1880;-63
2021/08/20 02:26:53;;;;;;;;;;;;;;;15.93;75.57;96922.28;30001;982;1876;-63
2021/08/20 02:27:24;;;;;;;;;;;;;;;15.93;75.60;96927.75;30001;982;1880;-64
2021/08/20 02:27:55;;;;;;;;;;;;;;;15.93;75.68;96925.03;30001;982;1862;-63
2021/08/20 02:28:25;;;;;;;;;;;;;;;15.93;75.69;96925.03;30001;983;1870;-63
2021/08/20 02:28:56;;;;;;;;;;;;;;;15.93;75.54;96925.03;30001;983;1875;-63
2021/08/20 02:29:27;;;;;;;;;;;;;;;15.93;75.79;96921.47;30001;983;1787;-64
2021/08/20 02:29:58;;;;;;;;;;;;;;;15.93;75.57;96918.75;30001;983;1875;-63
2021/08/20 02:30:29;;;;;;;;;;;;;;;15.93;75.51;96919.56;30001;983;1879;-63
2021/08/20 02:31:00;;;;;;;;;;;;;;;15.92;75.77;96920.69;30001;986;1875;-63
2021/08/20 02:31:31;;;;;;;;;;;;;;;15.92;75.78;96923.41;30001;983;1879;-64
2021/08/20 02:32:02;;;;;;;;;;;;;;;15.92;75.87;96923.41;30001;975;1866;-63
2021/08/20 02:32:33;;;;;;;;;;;;;;;15.91;75.83;96927.28;30001;983;1880;-63
2021/08/20 02:33:04;;;;;;;;;;;;;;;15.91;75.92;96927.28;30001;983;1862;-63
2021/08/20 02:33:34;;;;;;;;;;;;;;;15.91;76.15;96932.75;30001;982;1871;-62
2021/08/20 02:34:05;;;;;;;;;;;;;;;15.90;76.32;96925.69;30001;982;1875;-63
2021/08/20 02:34:36;;;;;;;;;;;;;;;15.90;75.96;96927.59;30001;982;1880;-64
2021/08/20 02:35:07;;;;;;;;;;;;;;;15.90;76.19;96925.69;30001;982;1876;-62
2021/08/20 02:35:38;;;;;;;;;;;;;;;15.89;76.68;96926.81;30001;982;1867;-64
2021/08/20 02:36:10;;;;;;;;;;;;;;;15.90;76.50;96930.34;30001;983;1853;-62
2021/08/20 02:36:42;;;;;;;;;;;;;;;15.90;76.24;96931.16;30001;983;1879;-63
2021/08/20 02:37:13;;;;;;;;;;;;;;;15.89;76.11;96924.06;30001;983;1875;-63
2021/08/20 02:37:44;;;;;;;;;;;;;;;15.89;75.94;96929.53;30001;983;1879;-58
2021/08/20 02:38:14;;;;;;;;;;;;;;;15.91;75.86;96921.81;30001;983;1875;-63
2021/08/20 02:38:45;;;;;;;;;;;;;;;15.89;75.40;96924.06;30001;983;1879;-64
2021/08/20 02:39:16;;;;;;;;;;;;;;;15.90;75.52;96931.16;30001;983;1862;-64
2021/08/20 02:39:47;;;;;;;;;;;;;;;15.90;75.21;96924.88;30001;983;1871;-64
2021/08/20 02:40:18;;;;;;;;;;;;;;;15.89;75.12;96921.34;30001;983;1875;-62
2021/08/20 02:40:49;;;;;;;;;;;;;;;15.90;75.29;96931.16;30001;983;1880;-63
2021/08/20 02:41:20;;;;;;;;;;;;;;;15.90;75.36;96922.13;30001;982;1875;-63
2021/08/20 02:41:51;;;;;;;;;;;;;;;15.88;75.21;96927.13;30001;982;1792;-62
2021/08/20 02:42:22;;;;;;;;;;;;;;;15.88;75.48;96927.94;30001;982;1876;-57
2021/08/20 02:42:53;;;;;;;;;;;;;;;15.89;75.42;96929.53;30001;982;1867;-63
2021/08/20 02:43:23;;;;;;;;;;;;;;;15.88;75.55;96927.13;30001;982;1867;-62
2021/08/20 02:43:54;;;;;;;;;;;;;;;15.88;75.90;96933.41;30001;983;1879;-63
2021/08/20 02:44:25;;;;;;;;;;;;;;;15.88;76.34;96935.34;30001;983;1875;-63
2021/08/20 02:44:56;;;;;;;;;;;;;;;15.88;76.39;96927.13;30001;983;1879;-63
2021/08/20 02:45:28;;;;;;;;;;;;;;;15.87;76.49;96925.53;30001;987;1867;-63
2021/08/20 02:45:59;;;;;;;;;;;;;;;15.87;76.13;96931.00;30001;983;1879;-63
2021/08/20 02:46:31;;;;;;;;;;;;;;;15.87;76.15;96925.53;30001;983;1875;-63
2021/08/20 02:47:02;;;;;;;;;;;;;;;15.86;76.22;96927.44;30001;983;1880;-64
2021/08/20 02:47:33;;;;;;;;;;;;;;;15.87;76.45;96931.78;30001;983;1875;-63